Austin, Texas
Traffic Map
Current Weather Conditions
Austin, Texas
Clear
Clear
98°
Feels Like: 100°
Wind Chill: 98° Ceiling: Unl
Heat Index: 100° Visibility: 10mi
Dew Point: 64° Wind: 5mph
Humidity: 33% Direction: ° ()
Pressure: 29.79in Gusts: 0mph
Raw Report DataKATT 262051Z AUTO VRB04KT 10SM CLR 37/18 A2979 RMK AO2 SLP070 T03670178 58021
Traffic Incident Summary
Active as of:
Severity:
Category:
InformationThere was an issue retrieving the traffic information for this location. Please try a different location or try again shortly.
Advertisements